sensor_id;sensor_type;location;lat;lon;timestamp;P1;durP1;ratioP1;P2;durP2;ratioP2
68247;SDS011;55064;49.636;12.164;2022-12-18T00:00:58;37.55;;;10.80;;
68247;SDS011;55064;49.636;12.164;2022-12-18T00:03:26;33.07;;;11.63;;
68247;SDS011;55064;49.636;12.164;2022-12-18T00:05:51;28.63;;;10.43;;
68247;SDS011;55064;49.636;12.164;2022-12-18T00:08:18;28.17;;;10.10;;
68247;SDS011;55064;49.636;12.164;2022-12-18T00:10:48;30.60;;;10.20;;
68247;SDS011;55064;49.636;12.164;2022-12-18T00:13:15;38.50;;;12.77;;
68247;SDS011;55064;49.636;12.164;2022-12-18T00:15:42;34.42;;;13.13;;
68247;SDS011;55064;49.636;12.164;2022-12-18T00:18:08;38.90;;;14.35;;
68247;SDS011;55064;49.636;12.164;2022-12-18T00:20:37;38.80;;;13.32;;
68247;SDS011;55064;49.636;12.164;2022-12-18T00:23:07;40.90;;;14.95;;
68247;SDS011;55064;49.636;12.164;2022-12-18T00:25:33;38.77;;;14.03;;
68247;SDS011;55064;49.636;12.164;2022-12-18T00:28:00;41.13;;;14.10;;
68247;SDS011;55064;49.636;12.164;2022-12-18T00:30:26;37.95;;;13.45;;
68247;SDS011;55064;49.636;12.164;2022-12-18T00:32:54;39.15;;;14.48;;
68247;SDS011;55064;49.636;12.164;2022-12-18T00:35:20;29.10;;;11.90;;
68247;SDS011;55064;49.636;12.164;2022-12-18T00:37:45;36.13;;;13.27;;
68247;SDS011;55064;49.636;12.164;2022-12-18T00:40:15;38.17;;;12.03;;
68247;SDS011;55064;49.636;12.164;2022-12-18T00:42:45;27.95;;;11.18;;
68247;SDS011;55064;49.636;12.164;2022-12-18T00:45:27;32.47;;;12.57;;
68247;SDS011;55064;49.636;12.164;2022-12-18T00:47:54;40.60;;;11.90;;
68247;SDS011;55064;49.636;12.164;2022-12-18T00:50:22;33.13;;;11.17;;
68247;SDS011;55064;49.636;12.164;2022-12-18T00:52:51;33.67;;;11.52;;
68247;SDS011;55064;49.636;12.164;2022-12-18T00:55:16;43.90;;;11.40;;
68247;SDS011;55064;49.636;12.164;2022-12-18T00:57:44;34.43;;;12.60;;
68247;SDS011;55064;49.636;12.164;2022-12-18T01:00:13;40.47;;;11.55;;
68247;SDS011;55064;49.636;12.164;2022-12-18T01:02:44;38.77;;;11.73;;
68247;SDS011;55064;49.636;12.164;2022-12-18T01:05:10;33.40;;;11.25;;
68247;SDS011;55064;49.636;12.164;2022-12-18T01:07:39;44.20;;;13.07;;
68247;SDS011;55064;49.636;12.164;2022-12-18T01:10:05;39.77;;;13.00;;
68247;SDS011;55064;49.636;12.164;2022-12-18T01:12:32;39.28;;;12.63;;
68247;SDS011;55064;49.636;12.164;2022-12-18T01:15:00;36.63;;;10.70;;
68247;SDS011;55064;49.636;12.164;2022-12-18T01:17:25;31.73;;;10.47;;
68247;SDS011;55064;49.636;12.164;2022-12-18T01:19:51;43.27;;;13.43;;
68247;SDS011;55064;49.636;12.164;2022-12-18T01:22:18;34.25;;;11.80;;
68247;SDS011;55064;49.636;12.164;2022-12-18T01:24:48;38.85;;;10.40;;
68247;SDS011;55064;49.636;12.164;2022-12-18T01:27:18;35.58;;;11.35;;
68247;SDS011;55064;49.636;12.164;2022-12-18T01:29:46;36.53;;;11.10;;
68247;SDS011;55064;49.636;12.164;2022-12-18T01:32:17;38.85;;;11.80;;
68247;SDS011;55064;49.636;12.164;2022-12-18T01:34:45;38.75;;;11.40;;
68247;SDS011;55064;49.636;12.164;2022-12-18T01:37:10;32.22;;;9.90;;
68247;SDS011;55064;49.636;12.164;2022-12-18T01:39:38;43.47;;;12.10;;
68247;SDS011;55064;49.636;12.164;2022-12-18T01:42:11;40.23;;;11.17;;
68247;SDS011;55064;49.636;12.164;2022-12-18T01:47:46;31.25;;;10.52;;
68247;SDS011;55064;49.636;12.164;2022-12-18T01:50:22;43.53;;;12.30;;
68247;SDS011;55064;49.636;12.164;2022-12-18T01:55:26;32.53;;;9.47;;
68247;SDS011;55064;49.636;12.164;2022-12-18T01:58:00;42.75;;;10.75;;
68247;SDS011;55064;49.636;12.164;2022-12-18T02:00:28;33.58;;;9.82;;
68247;SDS011;55064;49.636;12.164;2022-12-18T02:02:56;39.42;;;10.18;;
68247;SDS011;55064;49.636;12.164;2022-12-18T02:05:39;35.10;;;10.17;;
68247;SDS011;55064;49.636;12.164;2022-12-18T02:08:40;35.55;;;10.13;;
68247;SDS011;55064;49.636;12.164;2022-12-18T02:11:53;37.60;;;10.73;;
68247;SDS011;55064;49.636;12.164;2022-12-18T02:14:16;46.75;;;10.48;;
68247;SDS011;55064;49.636;12.164;2022-12-18T02:16:58;32.28;;;9.88;;
68247;SDS011;55064;49.636;12.164;2022-12-18T02:25:17;35.38;;;10.15;;
68247;SDS011;55064;49.636;12.164;2022-12-18T02:27:53;33.38;;;9.63;;
68247;SDS011;55064;49.636;12.164;2022-12-18T02:30:21;31.05;;;9.38;;
68247;SDS011;55064;49.636;12.164;2022-12-18T02:32:50;25.77;;;8.07;;
68247;SDS011;55064;49.636;12.164;2022-12-18T02:35:20;36.33;;;8.55;;
68247;SDS011;55064;49.636;12.164;2022-12-18T02:37:56;22.00;;;6.75;;
68247;SDS011;55064;49.636;12.164;2022-12-18T02:40:26;24.10;;;7.57;;
68247;SDS011;55064;49.636;12.164;2022-12-18T02:42:55;27.33;;;7.78;;
68247;SDS011;55064;49.636;12.164;2022-12-18T02:45:32;26.33;;;7.40;;
68247;SDS011;55064;49.636;12.164;2022-12-18T02:48:00;22.77;;;6.82;;
68247;SDS011;55064;49.636;12.164;2022-12-18T03:00:58;23.45;;;7.65;;
68247;SDS011;55064;49.636;12.164;2022-12-18T03:03:36;24.87;;;6.80;;
68247;SDS011;55064;49.636;12.164;2022-12-18T03:06:10;21.90;;;6.93;;
68247;SDS011;55064;49.636;12.164;2022-12-18T03:08:47;16.35;;;5.22;;
68247;SDS011;55064;49.636;12.164;2022-12-18T03:11:17;27.58;;;7.50;;
68247;SDS011;55064;49.636;12.164;2022-12-18T03:14:05;24.90;;;7.60;;
68247;SDS011;55064;49.636;12.164;2022-12-18T03:16:35;27.20;;;7.33;;
68247;SDS011;55064;49.636;12.164;2022-12-18T03:19:12;25.00;;;7.10;;
68247;SDS011;55064;49.636;12.164;2022-12-18T03:21:54;24.40;;;6.60;;
68247;SDS011;55064;49.636;12.164;2022-12-18T03:24:26;22.20;;;6.70;;
68247;SDS011;55064;49.636;12.164;2022-12-18T03:26:54;25.80;;;7.07;;
68247;SDS011;55064;49.636;12.164;2022-12-18T03:29:32;23.43;;;7.63;;
68247;SDS011;55064;49.636;12.164;2022-12-18T03:35:03;22.58;;;7.00;;
68247;SDS011;55064;49.636;12.164;2022-12-18T03:37:30;23.10;;;6.30;;
68247;SDS011;55064;49.636;12.164;2022-12-18T03:39:58;23.03;;;6.53;;
68247;SDS011;55064;49.636;12.164;2022-12-18T03:50:27;20.08;;;6.50;;
68247;SDS011;55064;49.636;12.164;2022-12-18T03:53:17;25.30;;;6.37;;
68247;SDS011;55064;49.636;12.164;2022-12-18T03:55:50;19.92;;;6.30;;
68247;SDS011;55064;49.636;12.164;2022-12-18T03:58:20;27.08;;;6.88;;
68247;SDS011;55064;49.636;12.164;2022-12-18T04:00:49;18.77;;;6.15;;
68247;SDS011;55064;49.636;12.164;2022-12-18T04:03:17;18.73;;;5.90;;
68247;SDS011;55064;49.636;12.164;2022-12-18T04:05:44;18.77;;;6.33;;
68247;SDS011;55064;49.636;12.164;2022-12-18T04:08:12;23.15;;;6.88;;
68247;SDS011;55064;49.636;12.164;2022-12-18T04:10:42;19.58;;;6.35;;
68247;SDS011;55064;49.636;12.164;2022-12-18T04:13:10;24.45;;;7.65;;
68247;SDS011;55064;49.636;12.164;2022-12-18T04:15:50;25.35;;;6.85;;
68247;SDS011;55064;49.636;12.164;2022-12-18T04:18:16;27.40;;;8.17;;
68247;SDS011;55064;49.636;12.164;2022-12-18T04:20:41;27.75;;;7.38;;
68247;SDS011;55064;49.636;12.164;2022-12-18T04:23:06;21.73;;;7.13;;
68247;SDS011;55064;49.636;12.164;2022-12-18T04:25:34;30.67;;;8.27;;
68247;SDS011;55064;49.636;12.164;2022-12-18T04:27:59;23.83;;;7.20;;
68247;SDS011;55064;49.636;12.164;2022-12-18T04:30:27;28.13;;;7.57;;
68247;SDS011;55064;49.636;12.164;2022-12-18T04:32:52;30.23;;;7.90;;
68247;SDS011;55064;49.636;12.164;2022-12-18T04:35:20;29.35;;;7.15;;
68247;SDS011;55064;49.636;12.164;2022-12-18T04:37:45;21.47;;;7.67;;
68247;SDS011;55064;49.636;12.164;2022-12-18T04:40:13;23.50;;;6.80;;
68247;SDS011;55064;49.636;12.164;2022-12-18T04:42:39;27.27;;;8.25;;
68247;SDS011;55064;49.636;12.164;2022-12-18T04:45:08;25.42;;;8.13;;
68247;SDS011;55064;49.636;12.164;2022-12-18T04:47:33;26.00;;;7.15;;
68247;SDS011;55064;49.636;12.164;2022-12-18T04:49:58;20.43;;;5.80;;
68247;SDS011;55064;49.636;12.164;2022-12-18T04:52:24;20.80;;;6.30;;
68247;SDS011;55064;49.636;12.164;2022-12-18T04:54:54;21.20;;;6.53;;
68247;SDS011;55064;49.636;12.164;2022-12-18T04:57:19;23.23;;;6.78;;
68247;SDS011;55064;49.636;12.164;2022-12-18T04:59:47;28.37;;;7.10;;
68247;SDS011;55064;49.636;12.164;2022-12-18T05:02:15;22.80;;;6.50;;
68247;SDS011;55064;49.636;12.164;2022-12-18T05:04:42;21.17;;;6.73;;
68247;SDS011;55064;49.636;12.164;2022-12-18T05:07:08;22.63;;;7.53;;
68247;SDS011;55064;49.636;12.164;2022-12-18T05:09:36;21.95;;;6.28;;
68247;SDS011;55064;49.636;12.164;2022-12-18T05:12:01;25.47;;;7.27;;
68247;SDS011;55064;49.636;12.164;2022-12-18T05:14:26;16.73;;;6.35;;
68247;SDS011;55064;49.636;12.164;2022-12-18T05:16:54;23.37;;;6.63;;
68247;SDS011;55064;49.636;12.164;2022-12-18T05:19:21;22.60;;;6.57;;
68247;SDS011;55064;49.636;12.164;2022-12-18T05:21:47;30.70;;;9.67;;
68247;SDS011;55064;49.636;12.164;2022-12-18T05:24:14;33.97;;;11.33;;
68247;SDS011;55064;49.636;12.164;2022-12-18T05:26:42;32.30;;;8.73;;
68247;SDS011;55064;49.636;12.164;2022-12-18T05:29:07;18.53;;;6.07;;
68247;SDS011;55064;49.636;12.164;2022-12-18T05:31:40;17.10;;;5.60;;
68247;SDS011;55064;49.636;12.164;2022-12-18T05:34:05;19.40;;;5.88;;
68247;SDS011;55064;49.636;12.164;2022-12-18T05:36:31;19.93;;;6.80;;
68247;SDS011;55064;49.636;12.164;2022-12-18T05:38:56;16.60;;;5.63;;
68247;SDS011;55064;49.636;12.164;2022-12-18T05:41:25;15.20;;;4.80;;
68247;SDS011;55064;49.636;12.164;2022-12-18T05:43:50;22.42;;;6.78;;
68247;SDS011;55064;49.636;12.164;2022-12-18T05:46:16;23.07;;;6.63;;
68247;SDS011;55064;49.636;12.164;2022-12-18T05:48:42;28.88;;;7.18;;
68247;SDS011;55064;49.636;12.164;2022-12-18T05:51:15;26.63;;;7.38;;
68247;SDS011;55064;49.636;12.164;2022-12-18T05:53:42;27.70;;;8.70;;
68247;SDS011;55064;49.636;12.164;2022-12-18T05:56:12;23.05;;;6.50;;
68247;SDS011;55064;49.636;12.164;2022-12-18T05:58:40;24.73;;;5.50;;
68247;SDS011;55064;49.636;12.164;2022-12-18T06:01:10;22.05;;;6.93;;
68247;SDS011;55064;49.636;12.164;2022-12-18T06:03:36;25.23;;;7.22;;
68247;SDS011;55064;49.636;12.164;2022-12-18T06:06:01;22.13;;;6.83;;
68247;SDS011;55064;49.636;12.164;2022-12-18T06:08:30;19.17;;;5.88;;
68247;SDS011;55064;49.636;12.164;2022-12-18T06:11:00;21.58;;;6.97;;
68247;SDS011;55064;49.636;12.164;2022-12-18T06:13:25;27.17;;;7.55;;
68247;SDS011;55064;49.636;12.164;2022-12-18T06:15:50;27.77;;;7.50;;
68247;SDS011;55064;49.636;12.164;2022-12-18T06:18:20;24.90;;;8.73;;
68247;SDS011;55064;49.636;12.164;2022-12-18T06:20:53;26.58;;;7.13;;
68247;SDS011;55064;49.636;12.164;2022-12-18T06:23:24;25.52;;;6.78;;
68247;SDS011;55064;49.636;12.164;2022-12-18T06:25:50;26.23;;;7.80;;
68247;SDS011;55064;49.636;12.164;2022-12-18T06:28:15;22.53;;;7.23;;
68247;SDS011;55064;49.636;12.164;2022-12-18T06:30:44;27.93;;;7.13;;
68247;SDS011;55064;49.636;12.164;2022-12-18T06:33:10;25.80;;;7.95;;
68247;SDS011;55064;49.636;12.164;2022-12-18T06:35:36;23.07;;;5.70;;
68247;SDS011;55064;49.636;12.164;2022-12-18T06:38:03;24.53;;;6.13;;
68247;SDS011;55064;49.636;12.164;2022-12-18T06:40:29;26.85;;;8.15;;
68247;SDS011;55064;49.636;12.164;2022-12-18T06:42:57;24.02;;;8.32;;
68247;SDS011;55064;49.636;12.164;2022-12-18T06:45:22;25.60;;;7.47;;
68247;SDS011;55064;49.636;12.164;2022-12-18T06:47:50;26.37;;;8.30;;
68247;SDS011;55064;49.636;12.164;2022-12-18T06:50:16;29.05;;;7.78;;
68247;SDS011;55064;49.636;12.164;2022-12-18T06:52:44;25.58;;;7.40;;
68247;SDS011;55064;49.636;12.164;2022-12-18T06:55:12;23.55;;;5.95;;
68247;SDS011;55064;49.636;12.164;2022-12-18T06:57:37;19.80;;;5.27;;
68247;SDS011;55064;49.636;12.164;2022-12-18T07:00:05;20.10;;;6.30;;
68247;SDS011;55064;49.636;12.164;2022-12-18T07:02:33;17.65;;;5.82;;
68247;SDS011;55064;49.636;12.164;2022-12-18T07:04:59;19.55;;;5.40;;
68247;SDS011;55064;49.636;12.164;2022-12-18T07:07:26;17.90;;;5.70;;
68247;SDS011;55064;49.636;12.164;2022-12-18T07:09:52;17.70;;;4.95;;
68247;SDS011;55064;49.636;12.164;2022-12-18T07:12:17;18.30;;;5.57;;
68247;SDS011;55064;49.636;12.164;2022-12-18T07:14:43;13.60;;;4.63;;
68247;SDS011;55064;49.636;12.164;2022-12-18T07:17:08;12.33;;;3.70;;
68247;SDS011;55064;49.636;12.164;2022-12-18T07:19:33;14.50;;;3.80;;
68247;SDS011;55064;49.636;12.164;2022-12-18T07:22:01;16.17;;;4.90;;
68247;SDS011;55064;49.636;12.164;2022-12-18T07:24:30;15.85;;;3.28;;
68247;SDS011;55064;49.636;12.164;2022-12-18T07:26:57;16.08;;;4.68;;
68247;SDS011;55064;49.636;12.164;2022-12-18T07:29:27;15.85;;;4.82;;
68247;SDS011;55064;49.636;12.164;2022-12-18T07:31:53;20.10;;;5.60;;
68247;SDS011;55064;49.636;12.164;2022-12-18T07:34:18;14.30;;;5.17;;
68247;SDS011;55064;49.636;12.164;2022-12-18T07:36:44;20.38;;;5.80;;
68247;SDS011;55064;49.636;12.164;2022-12-18T07:39:10;18.23;;;5.93;;
68247;SDS011;55064;49.636;12.164;2022-12-18T07:41:38;24.50;;;7.17;;
68247;SDS011;55064;49.636;12.164;2022-12-18T07:44:08;28.83;;;8.02;;
68247;SDS011;55064;49.636;12.164;2022-12-18T07:46:37;19.70;;;6.57;;
68247;SDS011;55064;49.636;12.164;2022-12-18T07:49:07;17.13;;;5.30;;
68247;SDS011;55064;49.636;12.164;2022-12-18T07:51:33;17.10;;;6.03;;
68247;SDS011;55064;49.636;12.164;2022-12-18T07:54:00;14.90;;;5.70;;
68247;SDS011;55064;49.636;12.164;2022-12-18T07:56:26;21.13;;;5.77;;
68247;SDS011;55064;49.636;12.164;2022-12-18T07:58:51;23.73;;;6.90;;
68247;SDS011;55064;49.636;12.164;2022-12-18T08:01:19;19.65;;;6.30;;
68247;SDS011;55064;49.636;12.164;2022-12-18T08:03:44;21.97;;;6.87;;
68247;SDS011;55064;49.636;12.164;2022-12-18T08:06:10;27.40;;;7.23;;
68247;SDS011;55064;49.636;12.164;2022-12-18T08:08:35;25.60;;;7.30;;
68247;SDS011;55064;49.636;12.164;2022-12-18T08:11:07;21.70;;;7.87;;
68247;SDS011;55064;49.636;12.164;2022-12-18T08:13:32;26.00;;;9.27;;
68247;SDS011;55064;49.636;12.164;2022-12-18T08:16:04;26.67;;;8.83;;
68247;SDS011;55064;49.636;12.164;2022-12-18T08:18:35;19.63;;;7.32;;
68247;SDS011;55064;49.636;12.164;2022-12-18T08:23:35;23.15;;;7.82;;
68247;SDS011;55064;49.636;12.164;2022-12-18T08:26:02;24.50;;;7.60;;
68247;SDS011;55064;49.636;12.164;2022-12-18T08:28:32;26.98;;;8.93;;
68247;SDS011;55064;49.636;12.164;2022-12-18T08:31:01;24.85;;;7.47;;
68247;SDS011;55064;49.636;12.164;2022-12-18T08:33:31;24.50;;;7.20;;
68247;SDS011;55064;49.636;12.164;2022-12-18T08:35:59;20.80;;;6.40;;
68247;SDS011;55064;49.636;12.164;2022-12-18T08:38:25;15.55;;;6.30;;
68247;SDS011;55064;49.636;12.164;2022-12-18T08:43:34;20.73;;;7.50;;
68247;SDS011;55064;49.636;12.164;2022-12-18T08:46:21;26.43;;;7.53;;
68247;SDS011;55064;49.636;12.164;2022-12-18T08:48:50;22.50;;;7.38;;
68247;SDS011;55064;49.636;12.164;2022-12-18T08:51:16;23.00;;;7.40;;
68247;SDS011;55064;49.636;12.164;2022-12-18T08:53:42;25.03;;;7.47;;
68247;SDS011;55064;49.636;12.164;2022-12-18T08:56:08;17.48;;;5.88;;
68247;SDS011;55064;49.636;12.164;2022-12-18T08:58:33;33.63;;;11.83;;
68247;SDS011;55064;49.636;12.164;2022-12-18T09:01:02;26.58;;;10.68;;
68247;SDS011;55064;49.636;12.164;2022-12-18T09:03:32;27.30;;;9.85;;
68247;SDS011;55064;49.636;12.164;2022-12-18T09:05:58;33.72;;;11.70;;
68247;SDS011;55064;49.636;12.164;2022-12-18T09:08:24;28.70;;;9.20;;
68247;SDS011;55064;49.636;12.164;2022-12-18T09:10:50;28.42;;;9.25;;
68247;SDS011;55064;49.636;12.164;2022-12-18T09:13:16;28.40;;;8.68;;
68247;SDS011;55064;49.636;12.164;2022-12-18T09:15:45;25.42;;;7.68;;
68247;SDS011;55064;49.636;12.164;2022-12-18T09:18:16;27.10;;;7.70;;
68247;SDS011;55064;49.636;12.164;2022-12-18T09:20:44;26.83;;;8.07;;
68247;SDS011;55064;49.636;12.164;2022-12-18T09:23:11;22.52;;;7.47;;
68247;SDS011;55064;49.636;12.164;2022-12-18T09:25:37;23.25;;;8.02;;
68247;SDS011;55064;49.636;12.164;2022-12-18T09:28:04;26.13;;;8.13;;
68247;SDS011;55064;49.636;12.164;2022-12-18T09:30:34;22.55;;;7.88;;
68247;SDS011;55064;49.636;12.164;2022-12-18T09:33:02;24.05;;;8.48;;
68247;SDS011;55064;49.636;12.164;2022-12-18T09:35:28;23.47;;;8.73;;
68247;SDS011;55064;49.636;12.164;2022-12-18T09:37:56;23.07;;;7.93;;
68247;SDS011;55064;49.636;12.164;2022-12-18T09:40:25;27.42;;;8.52;;
68247;SDS011;55064;49.636;12.164;2022-12-18T09:43:02;23.48;;;7.22;;
68247;SDS011;55064;49.636;12.164;2022-12-18T09:45:35;23.98;;;8.60;;
68247;SDS011;55064;49.636;12.164;2022-12-18T09:48:09;39.17;;;10.98;;
68247;SDS011;55064;49.636;12.164;2022-12-18T09:50:43;41.20;;;11.80;;
68247;SDS011;55064;49.636;12.164;2022-12-18T09:53:15;35.63;;;9.65;;
68247;SDS011;55064;49.636;12.164;2022-12-18T09:55:47;27.08;;;9.98;;
68247;SDS011;55064;49.636;12.164;2022-12-18T09:58:20;20.77;;;7.93;;
68247;SDS011;55064;49.636;12.164;2022-12-18T10:00:53;20.42;;;7.28;;
68247;SDS011;55064;49.636;12.164;2022-12-18T10:03:21;19.23;;;6.67;;
68247;SDS011;55064;49.636;12.164;2022-12-18T10:06:11;22.63;;;7.20;;
68247;SDS011;55064;49.636;12.164;2022-12-18T10:08:49;24.05;;;7.80;;
68247;SDS011;55064;49.636;12.164;2022-12-18T10:13:53;28.02;;;9.52;;
68247;SDS011;55064;49.636;12.164;2022-12-18T10:16:24;27.20;;;9.37;;
68247;SDS011;55064;49.636;12.164;2022-12-18T10:25:09;22.52;;;8.32;;
68247;SDS011;55064;49.636;12.164;2022-12-18T10:28:07;24.77;;;9.30;;
68247;SDS011;55064;49.636;12.164;2022-12-18T10:30:37;26.40;;;9.13;;
68247;SDS011;55064;49.636;12.164;2022-12-18T10:33:04;24.75;;;9.80;;
68247;SDS011;55064;49.636;12.164;2022-12-18T10:35:30;24.92;;;9.85;;
68247;SDS011;55064;49.636;12.164;2022-12-18T10:38:20;31.40;;;10.68;;
68247;SDS011;55064;49.636;12.164;2022-12-18T10:43:19;24.52;;;9.23;;
68247;SDS011;55064;49.636;12.164;2022-12-18T10:46:28;26.58;;;9.50;;
68247;SDS011;55064;49.636;12.164;2022-12-18T10:53:52;28.63;;;11.17;;
68247;SDS011;55064;49.636;12.164;2022-12-18T10:56:22;28.85;;;10.95;;
68247;SDS011;55064;49.636;12.164;2022-12-18T10:58:56;23.45;;;9.65;;
68247;SDS011;55064;49.636;12.164;2022-12-18T11:01:26;28.80;;;10.65;;
68247;SDS011;55064;49.636;12.164;2022-12-18T11:06:22;31.37;;;10.70;;
68247;SDS011;55064;49.636;12.164;2022-12-18T11:11:31;25.45;;;8.27;;
68247;SDS011;55064;49.636;12.164;2022-12-18T11:13:59;25.30;;;9.10;;
68247;SDS011;55064;49.636;12.164;2022-12-18T11:16:36;21.10;;;8.70;;
68247;SDS011;55064;49.636;12.164;2022-12-18T11:19:20;27.43;;;9.40;;
68247;SDS011;55064;49.636;12.164;2022-12-18T11:21:52;33.17;;;11.95;;
68247;SDS011;55064;49.636;12.164;2022-12-18T11:24:31;26.67;;;9.97;;
68247;SDS011;55064;49.636;12.164;2022-12-18T11:27:06;24.40;;;8.93;;
68247;SDS011;55064;49.636;12.164;2022-12-18T11:29:43;27.98;;;10.10;;
68247;SDS011;55064;49.636;12.164;2022-12-18T11:34:53;32.05;;;10.18;;
68247;SDS011;55064;49.636;12.164;2022-12-18T11:37:26;29.50;;;10.57;;
68247;SDS011;55064;49.636;12.164;2022-12-18T11:39:57;31.17;;;10.98;;
68247;SDS011;55064;49.636;12.164;2022-12-18T11:45:26;30.98;;;11.25;;
68247;SDS011;55064;49.636;12.164;2022-12-18T11:50:46;26.57;;;10.90;;
68247;SDS011;55064;49.636;12.164;2022-12-18T11:53:13;31.38;;;11.43;;
68247;SDS011;55064;49.636;12.164;2022-12-18T12:04:08;26.30;;;9.98;;
68247;SDS011;55064;49.636;12.164;2022-12-18T12:30:42;29.10;;;11.07;;
68247;SDS011;55064;49.636;12.164;2022-12-18T12:39:19;34.60;;;12.07;;
68247;SDS011;55064;49.636;12.164;2022-12-18T12:41:48;30.58;;;10.48;;
68247;SDS011;55064;49.636;12.164;2022-12-18T12:44:38;29.80;;;10.20;;
68247;SDS011;55064;49.636;12.164;2022-12-18T12:47:31;26.77;;;9.65;;
68247;SDS011;55064;49.636;12.164;2022-12-18T12:49:58;78.77;;;19.53;;
68247;SDS011;55064;49.636;12.164;2022-12-18T12:52:31;140.88;;;26.95;;
68247;SDS011;55064;49.636;12.164;2022-12-18T12:55:24;57.17;;;17.25;;
68247;SDS011;55064;49.636;12.164;2022-12-18T13:00:27;35.40;;;12.82;;
68247;SDS011;55064;49.636;12.164;2022-12-18T13:05:59;27.60;;;11.60;;
68247;SDS011;55064;49.636;12.164;2022-12-18T13:08:30;28.58;;;11.25;;
68247;SDS011;55064;49.636;12.164;2022-12-18T13:14:24;25.77;;;10.02;;
68247;SDS011;55064;49.636;12.164;2022-12-18T13:19:39;29.48;;;10.52;;
68247;SDS011;55064;49.636;12.164;2022-12-18T13:22:04;32.93;;;12.27;;
68247;SDS011;55064;49.636;12.164;2022-12-18T13:24:52;28.02;;;12.15;;
68247;SDS011;55064;49.636;12.164;2022-12-18T13:30:56;29.98;;;12.23;;
68247;SDS011;55064;49.636;12.164;2022-12-18T13:43:20;14.57;;;4.77;;
68247;SDS011;55064;49.636;12.164;2022-12-18T13:45:50;14.00;;;4.88;;
68247;SDS011;55064;49.636;12.164;2022-12-18T13:48:27;17.25;;;5.35;;
68247;SDS011;55064;49.636;12.164;2022-12-18T13:51:00;16.02;;;5.22;;
68247;SDS011;55064;49.636;12.164;2022-12-18T13:53:33;14.43;;;5.27;;
68247;SDS011;55064;49.636;12.164;2022-12-18T13:56:03;15.70;;;4.28;;
68247;SDS011;55064;49.636;12.164;2022-12-18T13:58:29;14.32;;;4.65;;
68247;SDS011;55064;49.636;12.164;2022-12-18T14:00:54;17.07;;;5.00;;
68247;SDS011;55064;49.636;12.164;2022-12-18T14:03:24;16.17;;;5.28;;
68247;SDS011;55064;49.636;12.164;2022-12-18T14:05:52;20.57;;;5.70;;
68247;SDS011;55064;49.636;12.164;2022-12-18T14:08:24;12.43;;;4.78;;
68247;SDS011;55064;49.636;12.164;2022-12-18T14:10:55;16.40;;;5.18;;
68247;SDS011;55064;49.636;12.164;2022-12-18T14:13:37;16.92;;;6.57;;
68247;SDS011;55064;49.636;12.164;2022-12-18T14:16:06;13.93;;;5.22;;
68247;SDS011;55064;49.636;12.164;2022-12-18T14:21:21;22.23;;;6.22;;
68247;SDS011;55064;49.636;12.164;2022-12-18T14:26:34;18.17;;;6.28;;
68247;SDS011;55064;49.636;12.164;2022-12-18T14:29:17;19.45;;;5.20;;
68247;SDS011;55064;49.636;12.164;2022-12-18T14:31:46;15.53;;;5.57;;
68247;SDS011;55064;49.636;12.164;2022-12-18T14:34:31;14.85;;;6.10;;
68247;SDS011;55064;49.636;12.164;2022-12-18T14:36:56;18.30;;;5.67;;
68247;SDS011;55064;49.636;12.164;2022-12-18T14:39:22;17.00;;;5.68;;
68247;SDS011;55064;49.636;12.164;2022-12-18T14:41:50;20.27;;;7.13;;
68247;SDS011;55064;49.636;12.164;2022-12-18T14:44:19;20.52;;;6.90;;
68247;SDS011;55064;49.636;12.164;2022-12-18T14:46:49;26.92;;;8.95;;
68247;SDS011;55064;49.636;12.164;2022-12-18T14:49:23;20.92;;;7.05;;
68247;SDS011;55064;49.636;12.164;2022-12-18T14:51:57;20.97;;;7.00;;
68247;SDS011;55064;49.636;12.164;2022-12-18T14:54:27;20.45;;;7.15;;
68247;SDS011;55064;49.636;12.164;2022-12-18T14:59:40;19.27;;;5.50;;
68247;SDS011;55064;49.636;12.164;2022-12-18T15:04:40;21.50;;;5.82;;
68247;SDS011;55064;49.636;12.164;2022-12-18T15:09:39;28.55;;;7.85;;
68247;SDS011;55064;49.636;12.164;2022-12-18T15:12:29;23.33;;;8.13;;
68247;SDS011;55064;49.636;12.164;2022-12-18T15:18:10;26.95;;;7.93;;
68247;SDS011;55064;49.636;12.164;2022-12-18T15:25:46;30.83;;;11.10;;
68247;SDS011;55064;49.636;12.164;2022-12-18T15:28:17;29.63;;;9.27;;
68247;SDS011;55064;49.636;12.164;2022-12-18T15:31:00;21.58;;;6.65;;
68247;SDS011;55064;49.636;12.164;2022-12-18T15:33:27;33.90;;;10.93;;
68247;SDS011;55064;49.636;12.164;2022-12-18T15:36:00;21.45;;;6.28;;
68247;SDS011;55064;49.636;12.164;2022-12-18T15:38:28;25.60;;;7.53;;
68247;SDS011;55064;49.636;12.164;2022-12-18T15:40:54;20.40;;;5.90;;
68247;SDS011;55064;49.636;12.164;2022-12-18T15:43:22;20.10;;;7.57;;
68247;SDS011;55064;49.636;12.164;2022-12-18T15:46:01;21.70;;;7.40;;
68247;SDS011;55064;49.636;12.164;2022-12-18T15:48:32;27.45;;;10.43;;
68247;SDS011;55064;49.636;12.164;2022-12-18T15:50:59;16.80;;;6.40;;
68247;SDS011;55064;49.636;12.164;2022-12-18T15:53:29;20.30;;;6.68;;
68247;SDS011;55064;49.636;12.164;2022-12-18T15:55:57;18.77;;;5.22;;
68247;SDS011;55064;49.636;12.164;2022-12-18T15:58:41;17.93;;;6.20;;
68247;SDS011;55064;49.636;12.164;2022-12-18T16:01:09;18.25;;;5.97;;
68247;SDS011;55064;49.636;12.164;2022-12-18T16:03:36;16.92;;;6.03;;
68247;SDS011;55064;49.636;12.164;2022-12-18T16:06:01;25.83;;;9.17;;
68247;SDS011;55064;49.636;12.164;2022-12-18T16:08:29;29.60;;;10.77;;
68247;SDS011;55064;49.636;12.164;2022-12-18T16:10:57;22.35;;;6.80;;
68247;SDS011;55064;49.636;12.164;2022-12-18T16:13:27;20.20;;;6.93;;
68247;SDS011;55064;49.636;12.164;2022-12-18T16:15:53;22.63;;;8.02;;
68247;SDS011;55064;49.636;12.164;2022-12-18T16:18:18;24.03;;;8.07;;
68247;SDS011;55064;49.636;12.164;2022-12-18T16:20:44;22.30;;;6.93;;
68247;SDS011;55064;49.636;12.164;2022-12-18T16:23:12;30.00;;;10.02;;
68247;SDS011;55064;49.636;12.164;2022-12-18T16:25:40;22.43;;;7.93;;
68247;SDS011;55064;49.636;12.164;2022-12-18T16:28:08;23.80;;;8.23;;
68247;SDS011;55064;49.636;12.164;2022-12-18T16:30:36;17.02;;;5.68;;
68247;SDS011;55064;49.636;12.164;2022-12-18T16:33:01;23.50;;;7.30;;
68247;SDS011;55064;49.636;12.164;2022-12-18T16:35:27;19.53;;;6.63;;
68247;SDS011;55064;49.636;12.164;2022-12-18T16:37:57;35.90;;;11.70;;
68247;SDS011;55064;49.636;12.164;2022-12-18T16:40:22;27.03;;;9.70;;
68247;SDS011;55064;49.636;12.164;2022-12-18T16:42:50;16.90;;;5.65;;
68247;SDS011;55064;49.636;12.164;2022-12-18T16:45:17;28.17;;;10.40;;
68247;SDS011;55064;49.636;12.164;2022-12-18T16:47:47;25.87;;;8.10;;
68247;SDS011;55064;49.636;12.164;2022-12-18T16:50:12;32.30;;;9.48;;
68247;SDS011;55064;49.636;12.164;2022-12-18T16:52:38;22.33;;;7.23;;
68247;SDS011;55064;49.636;12.164;2022-12-18T16:55:04;23.30;;;5.65;;
68247;SDS011;55064;49.636;12.164;2022-12-18T16:57:32;19.77;;;6.83;;
68247;SDS011;55064;49.636;12.164;2022-12-18T16:59:58;33.45;;;7.28;;
68247;SDS011;55064;49.636;12.164;2022-12-18T17:02:25;18.98;;;5.85;;
68247;SDS011;55064;49.636;12.164;2022-12-18T17:04:54;24.47;;;7.33;;
68247;SDS011;55064;49.636;12.164;2022-12-18T17:07:23;25.58;;;8.57;;